Overview Statistics Trail Chart Weather Telemetry Raw packets
 

This is the latest recevied weather packets stored in our database for station/object OE6JVE-13. If no packets are shown the sender has not sent any weather packets the latest 10 day(s).

<< 40 41 42 43 44 45 46 >>
Time Temp. Humidity Pressure Rain* Wind** Luminosity Snow
1788004368 25° C 48% 1009.2 hPa 0 mm - - -
1788003762 23.89° C 50% 1009.2 hPa 0 mm - - -
1787995243 22.22° C 62% 1009.7 hPa 0 mm - - -
1787994701 22.22° C 62% 1009.6 hPa 0 mm - - -
1787994059 22.22° C 58% 1009.5 hPa 0 mm - - -
1787992216 22.22° C 54% 1009.2 hPa 0 mm - - -
1787991624 21.67° C 62% 1009.3 hPa 0 mm - - -
1787991068 21.11° C 66% 1009.4 hPa 0 mm - - -
1787990440 21.11° C 68% 1009.1 hPa 0 mm - - -
1787989858 21.11° C 63% 1008.7 hPa 0 mm - - -
1787989257 21.11° C 65% 1008.6 hPa 0 mm - - -
1787988665 20.56° C 71% 1008.6 hPa 0 mm - - -
1787988072 20.56° C 71% 1008.7 hPa 0 mm - - -
1787987480 20.56° C 70% 1008.6 hPa 0 mm - - -
1787986822 20.56° C 70% 1008.4 hPa 0 mm - - -
1787986230 20.56° C 70% 1008.4 hPa 0 mm - - -
1787985638 20.56° C 71% 1008.3 hPa 0 mm - - -
1787985046 20.56° C 72% 1008.3 hPa 0 mm - - -
1787984455 20.56° C 72% 1008.3 hPa 0 mm - - -
1787983917 20.56° C 71% 1008.1 hPa 0 mm - - -
1787983411 20° C 70% 1007.9 hPa 0 mm - - -
1787982716 20° C 72% 1007.9 hPa 0 mm - - -
1787982031 20° C 71% 1007.6 hPa 0 mm - - -
1787981442 19.44° C 72% 1007.8 hPa 0 mm - - -
1787980851 19.44° C 70% 1007.8 hPa 0 mm - - -

* Rain latest hour (hover to see other rain measurements)
** Current wind speed in m/s (hover to see current wind gust speed)